Time;durP1;ratioP1;P1;durP2;ratioP2;P2;SDS_P1;SDS_P2;PMS_P1;PMS_P2;Temp;Humidity;BMP_temperature;BMP_pressure;BME280_temperature;BME280_humidity;BME280_pressure;Samples;Min_cycle;Max_cycle;Signal;HPM_P1;HPM_P2
2021/12/25 00:02:01;;;;;;;8.40;3.30;;;;;;;;;;10154965;28;20076;-56
2021/12/25 00:07:00;;;;;;;3.58;3.28;;;;;;;;;;10155051;28;20073;-56
2021/12/25 00:12:00;;;;;;;7.88;3.40;;;;;;;;;;10154419;28;20073;-52
2021/12/25 00:17:00;;;;;;;4.15;3.38;;;;;;;;;;10155229;28;20073;-55
2021/12/25 00:22:00;;;;;;;3.92;3.53;;;;;;;;;;10155296;28;20100;-53
2021/12/25 00:27:04;;;;;;;6.90;4.78;;;;;;;;;;10154237;28;20304;-53
2021/12/25 00:32:26;;;;;;;16.58;10.15;;;;;;;;;;10154094;28;20075;-55
2021/12/25 00:37:26;;;;;;;63.53;31.52;;;;;;;;;;10154601;28;20092;-55
2021/12/25 00:42:24;;;;;;;6.88;5.63;;;;;;;;;;10153927;28;20092;-54
2021/12/25 00:47:25;;;;;;;5.20;4.78;;;;;;;;;;10152351;28;20070;-55
2021/12/25 00:52:23;;;;;;;4.65;3.53;;;;;;;;;;10151143;28;20074;-56
2021/12/25 00:57:22;;;;;;;4.53;4.13;;;;;;;;;;10151521;28;20169;-55
2021/12/25 01:02:20;;;;;;;5.47;4.55;;;;;;;;;;10150647;28;20078;-52
2021/12/25 01:07:20;;;;;;;4.47;3.38;;;;;;;;;;10149148;28;20078;-56
2021/12/25 01:12:19;;;;;;;3.83;3.40;;;;;;;;;;10134756;28;20583;-56
2021/12/25 01:39:05;;;;;;;5.15;3.50;;;;;;;;;;10136327;28;20073;-55
2021/12/25 01:50:00;;;;;;;4.05;3.65;;;;;;;;;;10147278;28;20539;-56
2021/12/25 01:55:03;;;;;;;4.82;3.50;;;;;;;;;;10111601;28;1114903;-55
2021/12/25 02:00:04;;;;;;;3.65;3.10;;;;;;;;;;10150469;28;20050;-54
2021/12/25 02:05:04;;;;;;;3.95;3.55;;;;;;;;;;10150526;28;20046;-50
2021/12/25 02:10:04;;;;;;;3.13;2.83;;;;;;;;;;10149403;28;20081;-50
2021/12/25 02:15:08;;;;;;;3.05;2.80;;;;;;;;;;10150333;28;20078;-56
2021/12/25 02:20:13;;;;;;;3.80;2.67;;;;;;;;;;10150238;28;20515;-54
2021/12/25 02:25:11;;;;;;;3.23;2.50;;;;;;;;;;10150866;28;20405;-55
2021/12/25 02:30:10;;;;;;;4.10;2.47;;;;;;;;;;10150694;28;20508;-56
2021/12/25 02:35:08;;;;;;;3.72;3.38;;;;;;;;;;10149390;28;20081;-54
2021/12/25 02:40:14;;;;;;;3.13;2.33;;;;;;;;;;10148877;28;20446;-54
2021/12/25 02:45:16;;;;;;;2.90;2.60;;;;;;;;;;10146917;28;20042;-55
2021/12/25 02:50:22;;;;;;;3.72;2.92;;;;;;;;;;10150874;28;20468;-57
2021/12/25 02:55:20;;;;;;;;;;;;;;;;;;10150425;28;20085;-57
2021/12/25 03:00:20;;;;;;;3.17;2.28;;;;;;;;;;10156433;28;20051;-56
2021/12/25 03:05:19;;;;;;;3.72;2.90;;;;;;;;;;10156472;28;20081;-55
2021/12/25 03:10:18;;;;;;;3.45;3.13;;;;;;;;;;10156619;28;20069;-57
2021/12/25 03:15:26;;;;;;;3.58;2.53;;;;;;;;;;10154824;28;20089;-59
2021/12/25 03:20:26;;;;;;;3.50;3.17;;;;;;;;;;10153225;28;20065;-56
2021/12/25 03:25:24;;;;;;;2.47;2.10;;;;;;;;;;10156414;28;20043;-57
2021/12/25 03:30:26;;;;;;;2.72;2.53;;;;;;;;;;10155733;28;20034;-56
2021/12/25 03:35:25;;;;;;;6.40;2.97;;;;;;;;;;10157241;28;20085;-54
2021/12/25 03:40:24;;;;;;;3.50;2.55;;;;;;;;;;10156810;28;20150;-55
2021/12/25 03:45:22;;;;;;;2.38;2.17;;;;;;;;;;10154611;28;20502;-57
2021/12/25 04:01:00;;;;;;;8.85;6.45;;;;;;;;;;10155932;28;19988;-55
2021/12/25 04:06:07;;;;;;;2.47;2.28;;;;;;;;;;10154444;28;20078;-55
2021/12/25 04:11:11;;;;;;;4.38;2.53;;;;;;;;;;10153745;28;20272;-56
2021/12/25 04:16:11;;;;;;;3.53;2.95;;;;;;;;;;10152915;28;20139;-57
2021/12/25 04:21:09;;;;;;;5.35;3.83;;;;;;;;;;10154142;28;20078;-56
2021/12/25 04:26:08;;;;;;;3.03;2.75;;;;;;;;;;10154241;28;20073;-54
2021/12/25 04:31:25;;;;;;;3.53;3.17;;;;;;;;;;10153538;28;20085;-53
2021/12/25 05:02:55;;;;;;;8.52;3.13;;;;;;;;;;10151855;28;20050;-53
2021/12/25 05:08:12;;;;;;;3.03;2.72;;;;;;;;;;10150976;28;20053;-55
2021/12/25 05:13:10;;;;;;;3.08;2.78;;;;;;;;;;10151442;28;20066;-55
2021/12/25 05:18:09;;;;;;;4.03;2.55;;;;;;;;;;10151601;28;20091;-55
2021/12/25 05:23:08;;;;;;;3.05;2.40;;;;;;;;;;10162744;28;20074;-54
2021/12/25 05:28:10;;;;;;;3.22;2.83;;;;;;;;;;10146464;28;20088;-56
2021/12/25 05:33:09;;;;;;;3.03;2.60;;;;;;;;;;10151313;28;20543;-55
2021/12/25 05:38:34;;;;;;;3.55;3.25;;;;;;;;;;10147680;28;20089;-51
2021/12/25 05:43:47;;;;;;;2.80;2.60;;;;;;;;;;10145997;28;20084;-54
2021/12/25 05:49:01;;;;;;;3.80;3.05;;;;;;;;;;10150092;28;20112;-55
2021/12/25 05:54:19;;;;;;;5.47;4.95;;;;;;;;;;10146862;28;20042;-56
2021/12/25 05:59:45;;;;;;;7.10;5.55;;;;;;;;;;10129462;28;20105;-54
2021/12/25 06:05:13;;;;;;;4.70;3.60;;;;;;;;;;10151502;28;20355;-52
2021/12/25 06:10:12;;;;;;;5.43;4.20;;;;;;;;;;10150721;28;20081;-57
2021/12/25 06:15:13;;;;;;;4.13;3.72;;;;;;;;;;10150095;28;21046;-53
2021/12/25 06:20:20;;;;;;;5.85;3.30;;;;;;;;;;10148884;28;20518;-51
2021/12/25 06:25:38;;;;;;;6.97;5.45;;;;;;;;;;10146544;28;20097;-53
2021/12/25 06:31:14;;;;;;;11.95;6.75;;;;;;;;;;10104040;28;20534;-53
2021/12/25 06:36:34;;;;;;;8.48;5.82;;;;;;;;;;10156215;28;20089;-56
2021/12/25 06:41:41;;;;;;;5.20;4.40;;;;;;;;;;10158672;28;20069;-58
2021/12/25 06:46:42;;;;;;;14.10;7.53;;;;;;;;;;10154500;28;20045;-57
2021/12/25 06:51:41;;;;;;;5.93;4.93;;;;;;;;;;10155712;28;20046;-57
2021/12/25 06:56:56;;;;;;;10.43;7.05;;;;;;;;;;10152863;28;20488;-58
2021/12/25 07:01:58;;;;;;;13.68;10.13;;;;;;;;;;10153390;28;20085;-56
2021/12/25 07:07:17;;;;;;;17.42;12.63;;;;;;;;;;10156254;28;20070;-53
2021/12/25 07:12:32;;;;;;;21.63;14.50;;;;;;;;;;10156606;28;20467;-56
2021/12/25 07:18:04;;;;;;;9.55;7.78;;;;;;;;;;10139278;28;20082;-56
2021/12/25 07:23:32;;;;;;;16.67;14.57;;;;;;;;;;10147193;28;20456;-57
2021/12/25 07:28:44;;;;;;;15.13;13.20;;;;;;;;;;10150752;28;20082;-56
2021/12/25 07:33:43;;;;;;;8.30;7.22;;;;;;;;;;10150506;28;20073;-56
2021/12/25 07:38:42;;;;;;;13.05;7.50;;;;;;;;;;10149559;28;20104;-59
2021/12/25 07:43:40;;;;;;;9.82;8.23;;;;;;;;;;10149182;28;20538;-58
2021/12/25 07:48:53;;;;;;;14.18;12.88;;;;;;;;;;10149765;28;20066;-57
2021/12/25 07:53:51;;;;;;;16.52;12.63;;;;;;;;;;10150883;28;20069;-56
2021/12/25 07:58:49;;;;;;;16.35;12.60;;;;;;;;;;10150692;28;20081;-56
2021/12/25 08:03:48;;;;;;;15.60;10.88;;;;;;;;;;10155747;28;20096;-56
2021/12/25 08:08:49;;;;;;;18.98;14.70;;;;;;;;;;10155167;28;20122;-58
2021/12/25 08:13:48;;;;;;;12.88;9.75;;;;;;;;;;10155108;28;20519;-56
2021/12/25 08:18:46;;;;;;;11.70;9.23;;;;;;;;;;10154886;28;20677;-56
2021/12/25 08:24:05;;;;;;;14.15;11.88;;;;;;;;;;10160480;28;20070;-56
2021/12/25 08:29:23;;;;;;;10.02;8.90;;;;;;;;;;10160414;28;20776;-56
2021/12/25 08:34:47;;;;;;;25.35;18.13;;;;;;;;;;10145691;28;20089;-58
2021/12/25 08:39:55;;;;;;;5.20;4.70;;;;;;;;;;10149605;28;20078;-57
2021/12/25 08:45:04;;;;;;;4.13;3.58;;;;;;;;;;10153684;28;20084;-58
2021/12/25 08:50:05;;;;;;;11.82;7.97;;;;;;;;;;10152405;28;20073;-57
2021/12/25 08:55:05;;;;;;;27.83;13.75;;;;;;;;;;10151797;28;20542;-57
2021/12/25 09:00:04;;;;;;;20.25;14.77;;;;;;;;;;10153191;28;20082;-57
2021/12/25 09:05:03;;;;;;;19.38;13.40;;;;;;;;;;10152677;28;20066;-57
2021/12/25 09:10:01;;;;;;;20.10;12.73;;;;;;;;;;10153362;28;20081;-56
2021/12/25 09:15:01;;;;;;;25.42;18.27;;;;;;;;;;10152618;28;20080;-58
2021/12/25 09:19:59;;;;;;;48.63;28.92;;;;;;;;;;10151596;28;20501;-56
2021/12/25 09:24:58;;;;;;;13.85;9.93;;;;;;;;;;10152320;28;20062;-56
2021/12/25 09:29:56;;;;;;;19.60;12.65;;;;;;;;;;10152267;28;20438;-57
2021/12/25 09:35:00;;;;;;;12.45;7.00;;;;;;;;;;10152066;28;20058;-55
2021/12/25 09:39:58;;;;;;;13.00;9.60;;;;;;;;;;10146113;28;20073;-55
2021/12/25 09:44:56;;;;;;;14.25;11.25;;;;;;;;;;10152478;28;20089;-56
2021/12/25 09:49:56;;;;;;;11.80;10.38;;;;;;;;;;10151400;28;20072;-58
2021/12/25 09:54:55;;;;;;;7.97;6.45;;;;;;;;;;10151331;28;20089;-58
2021/12/25 09:59:54;;;;;;;16.48;10.13;;;;;;;;;;10148377;28;20101;-58
2021/12/25 10:04:53;;;;;;;10.48;7.78;;;;;;;;;;10148721;28;20070;-56
2021/12/25 10:09:57;;;;;;;29.73;22.20;;;;;;;;;;10155999;28;20079;-56
2021/12/25 10:14:55;;;;;;;23.40;18.67;;;;;;;;;;10155478;28;20073;-56
2021/12/25 10:20:07;;;;;;;12.27;8.30;;;;;;;;;;10156914;28;20070;-56
2021/12/25 10:25:11;;;;;;;9.85;7.22;;;;;;;;;;10155026;28;20066;-56
2021/12/25 10:30:10;;;;;;;14.52;11.02;;;;;;;;;;10154838;28;20367;-56
2021/12/25 10:35:16;;;;;;;15.52;10.43;;;;;;;;;;10156331;28;20077;-58
2021/12/25 10:40:23;;;;;;;14.77;11.85;;;;;;;;;;10157815;28;20486;-55
2021/12/25 10:45:22;;;;;;;9.10;7.72;;;;;;;;;;10156622;28;20080;-57
2021/12/25 10:50:24;;;;;;;10.63;6.70;;;;;;;;;;10157279;28;20069;-56
2021/12/25 10:55:25;;;;;;;8.63;6.60;;;;;;;;;;10156194;28;20089;-58
2021/12/25 11:00:27;;;;;;;16.13;10.20;;;;;;;;;;10158066;28;20078;-54
2021/12/25 11:05:31;;;;;;;15.18;11.65;;;;;;;;;;10157446;28;20100;-55
2021/12/25 11:10:31;;;;;;;11.10;8.00;;;;;;;;;;10156482;28;20099;-56
2021/12/25 11:15:32;;;;;;;7.28;6.50;;;;;;;;;;10156644;28;20082;-57
2021/12/25 11:20:31;;;;;;;8.23;5.07;;;;;;;;;;10155875;28;20089;-58
2021/12/25 11:25:31;;;;;;;12.40;8.05;;;;;;;;;;10156875;28;20074;-58
2021/12/25 11:30:31;;;;;;;9.77;7.18;;;;;;;;;;10157172;28;20082;-57
2021/12/25 11:35:33;;;;;;;7.30;5.13;;;;;;;;;;10152578;28;20455;-56
2021/12/25 11:40:34;;;;;;;9.73;6.57;;;;;;;;;;10156260;28;20082;-57
2021/12/25 11:45:36;;;;;;;6.15;3.70;;;;;;;;;;10156042;28;20518;-56
2021/12/25 11:50:39;;;;;;;6.57;5.13;;;;;;;;;;10151164;28;20463;-56
2021/12/25 12:00:55;;;;;;;6.10;3.40;;;;;;;;;;10156010;28;20431;-57
2021/12/25 12:05:53;;;;;;;9.93;5.97;;;;;;;;;;10155469;28;20066;-58
2021/12/25 12:10:56;;;;;;;11.30;5.75;;;;;;;;;;10154726;28;20336;-57
2021/12/25 12:16:15;;;;;;;7.00;4.93;;;;;;;;;;10153860;28;20081;-57
2021/12/25 12:21:38;;;;;;;7.03;5.63;;;;;;;;;;10147639;28;20530;-56
2021/12/25 12:26:53;;;;;;;7.63;5.35;;;;;;;;;;10153861;28;20069;-57
2021/12/25 12:31:51;;;;;;;;;;;;;;;;;;10151308;28;20495;-57
2021/12/25 12:36:50;;;;;;;9.07;5.22;;;;;;;;;;10154245;28;20426;-55
2021/12/25 12:41:53;;;;;;;6.55;4.60;;;;;;;;;;10153087;28;20076;-56
2021/12/25 12:47:05;;;;;;;13.95;9.70;;;;;;;;;;10149724;28;20073;-57
2021/12/25 12:52:18;;;;;;;9.30;6.93;;;;;;;;;;10150273;28;20070;-57
2021/12/25 12:57:22;;;;;;;6.22;5.00;;;;;;;;;;10145505;28;20082;-56
2021/12/25 13:46:15;;;;;;;13.30;6.55;;;;;;;;;;11904068;23;20052;-59
2021/12/25 13:51:14;;;;;;;12.00;10.10;;;;;;;;;;10026835;29;20457;-58
2021/12/25 14:29:20;;;;;;;13.55;10.85;;;;;;;;;;11374483;23;20116;-52
2021/12/25 14:34:18;;;;;;;18.02;13.60;;;;;;;;;;10002728;29;20443;-59
2021/12/25 14:39:18;;;;;;;22.48;18.85;;;;;;;;;;9997350;29;20079;-52
2021/12/25 14:44:18;;;;;;;29.23;24.15;;;;;;;;;;10011008;29;20086;-59
2021/12/25 14:49:17;;;;;;;24.35;16.55;;;;;;;;;;10015196;29;20142;-54
2021/12/25 14:54:16;;;;;;;11.82;9.38;;;;;;;;;;9992399;29;20521;-53
2021/12/25 14:59:16;;;;;;;16.15;8.48;;;;;;;;;;9991546;29;20109;-53
2021/12/25 15:04:15;;;;;;;20.45;15.27;;;;;;;;;;9990106;29;20064;-50
2021/12/25 15:09:16;;;;;;;10.35;8.48;;;;;;;;;;9984822;29;20060;-50
2021/12/25 15:14:15;;;;;;;32.35;20.13;;;;;;;;;;10003886;29;20060;-54
2021/12/25 15:19:21;;;;;;;12.68;11.27;;;;;;;;;;10018359;29;20075;-55
2021/12/25 15:24:22;;;;;;;11.85;8.35;;;;;;;;;;10006981;29;20078;-53
2021/12/25 15:29:21;;;;;;;19.13;14.07;;;;;;;;;;9992254;29;20083;-54
2021/12/25 15:34:19;;;;;;;9.63;7.78;;;;;;;;;;9989175;29;20525;-55
2021/12/25 15:39:18;;;;;;;9.18;7.82;;;;;;;;;;9986220;29;20068;-51
2021/12/25 15:44:20;;;;;;;10.43;8.02;;;;;;;;;;9975691;29;20521;-55
2021/12/25 15:49:19;;;;;;;9.82;7.65;;;;;;;;;;9978156;29;20358;-51
2021/12/25 15:54:17;;;;;;;14.40;12.13;;;;;;;;;;9994481;29;20080;-53
2021/12/25 15:59:15;;;;;;;28.65;20.75;;;;;;;;;;9981510;29;20080;-50
2021/12/25 16:04:15;;;;;;;12.73;10.02;;;;;;;;;;9991626;29;20087;-54
2021/12/25 16:09:14;;;;;;;11.43;8.00;;;;;;;;;;9993419;29;20533;-53
2021/12/25 16:14:12;;;;;;;8.27;6.60;;;;;;;;;;9994653;29;20509;-54
2021/12/25 16:19:11;;;;;;;14.23;9.45;;;;;;;;;;9988347;29;20068;-49
2021/12/25 16:24:11;;;;;;;12.02;8.35;;;;;;;;;;9987427;29;20068;-50
2021/12/25 16:29:10;;;;;;;6.75;5.15;;;;;;;;;;9987152;29;20095;-54
2021/12/25 16:34:09;;;;;;;7.57;6.10;;;;;;;;;;9987571;29;20071;-55
2021/12/25 16:39:08;;;;;;;12.48;7.05;;;;;;;;;;9971458;29;20060;-52
2021/12/25 16:44:10;;;;;;;15.25;11.15;;;;;;;;;;9984417;29;20056;-53
2021/12/25 16:49:08;;;;;;;11.10;7.47;;;;;;;;;;9989689;29;20075;-53
2021/12/25 16:54:07;;;;;;;10.77;8.07;;;;;;;;;;9972341;29;20112;-51
2021/12/25 16:59:06;;;;;;;10.70;6.60;;;;;;;;;;9982984;29;20071;-50
2021/12/25 17:04:05;;;;;;;13.45;9.00;;;;;;;;;;9989534;29;20075;-52
2021/12/25 17:09:03;;;;;;;7.63;5.95;;;;;;;;;;9985245;29;20064;-54
2021/12/25 17:14:02;;;;;;;7.63;5.78;;;;;;;;;;9982638;29;20088;-48
2021/12/25 17:19:01;;;;;;;10.27;7.60;;;;;;;;;;9996824;29;20075;-53
2021/12/25 17:24:00;;;;;;;11.70;9.88;;;;;;;;;;9989004;29;20079;-52
2021/12/25 17:28:59;;;;;;;7.53;5.78;;;;;;;;;;9985347;29;20087;-54
2021/12/25 17:33:57;;;;;;;7.45;5.00;;;;;;;;;;9975024;29;20067;-53
2021/12/25 17:38:57;;;;;;;11.88;7.60;;;;;;;;;;9981469;29;20067;-52
2021/12/25 17:43:58;;;;;;;8.20;6.28;;;;;;;;;;9980628;29;20470;-54
2021/12/25 17:48:56;;;;;;;9.05;6.53;;;;;;;;;;9998490;29;20082;-53
2021/12/25 17:53:54;;;;;;;14.63;13.20;;;;;;;;;;9988658;29;20079;-51
2021/12/25 17:58:53;;;;;;;8.95;4.80;;;;;;;;;;9984357;29;20490;-53
2021/12/25 18:03:52;;;;;;;35.17;27.23;;;;;;;;;;9981507;29;20482;-51
2021/12/25 18:08:54;;;;;;;9.65;6.80;;;;;;;;;;9982164;29;20076;-52
2021/12/25 18:13:53;;;;;;;17.90;11.05;;;;;;;;;;10010417;29;20102;-54
2021/12/25 18:18:54;;;;;;;26.42;15.77;;;;;;;;;;10025417;29;20076;-55
2021/12/25 18:23:52;;;;;;;22.92;14.85;;;;;;;;;;9998929;29;20506;-51
2021/12/25 18:28:51;;;;;;;13.00;8.63;;;;;;;;;;9987045;29;20577;-52
2021/12/25 18:33:49;;;;;;;17.65;10.52;;;;;;;;;;9981298;29;20071;-49
2021/12/25 18:38:49;;;;;;;10.60;6.55;;;;;;;;;;9987710;29;20068;-50
2021/12/25 18:43:47;;;;;;;10.45;7.78;;;;;;;;;;9996766;29;20527;-54
2021/12/25 18:48:47;;;;;;;9.23;7.38;;;;;;;;;;9990981;29;20080;-50
2021/12/25 18:53:46;;;;;;;6.57;5.38;;;;;;;;;;9996160;29;20111;-52
2021/12/25 18:58:46;;;;;;;9.93;6.15;;;;;;;;;;9994370;29;20064;-51
2021/12/25 19:03:44;;;;;;;7.68;5.63;;;;;;;;;;9987652;29;20471;-49
2021/12/25 19:08:43;;;;;;;8.45;5.75;;;;;;;;;;9994605;29;20072;-53
2021/12/25 19:13:43;;;;;;;6.68;4.00;;;;;;;;;;10003780;29;20078;-51
2021/12/25 19:18:43;;;;;;;5.25;4.07;;;;;;;;;;9984151;29;20347;-54
2021/12/25 19:23:41;;;;;;;8.63;5.05;;;;;;;;;;9991348;29;20075;-54
2021/12/25 19:28:40;;;;;;;6.88;5.63;;;;;;;;;;9987488;29;20075;-54
2021/12/25 19:33:38;;;;;;;8.48;5.50;;;;;;;;;;9989564;29;20424;-53
2021/12/25 19:38:37;;;;;;;6.72;5.10;;;;;;;;;;9988309;29;20173;-55
2021/12/25 19:43:36;;;;;;;7.18;5.57;;;;;;;;;;9985903;29;20083;-52
2021/12/25 19:48:34;;;;;;;9.45;7.00;;;;;;;;;;9987841;29;20098;-52
2021/12/25 19:53:32;;;;;;;8.80;6.55;;;;;;;;;;9979744;29;20075;-54
2021/12/25 19:58:33;;;;;;;18.27;10.43;;;;;;;;;;9991402;29;20196;-55
2021/12/25 20:03:33;;;;;;;13.70;11.60;;;;;;;;;;9989670;29;20076;-55
2021/12/25 20:08:31;;;;;;;11.38;6.95;;;;;;;;;;9988001;29;20067;-50
2021/12/25 20:13:30;;;;;;;7.05;5.05;;;;;;;;;;9976583;29;20082;-52
2021/12/25 20:18:30;;;;;;;15.43;10.55;;;;;;;;;;9977959;29;20532;-59
2021/12/25 20:23:28;;;;;;;6.45;5.30;;;;;;;;;;10001347;29;20064;-58
2021/12/25 20:28:27;;;;;;;6.22;5.57;;;;;;;;;;9986430;29;20454;-58
2021/12/25 20:33:25;;;;;;;5.15;4.20;;;;;;;;;;9989686;29;20064;-58
2021/12/25 20:38:25;;;;;;;12.77;11.52;;;;;;;;;;9988974;29;20075;-59
2021/12/25 20:43:30;;;;;;;11.02;6.35;;;;;;;;;;9991550;29;20085;-59
2021/12/25 20:48:30;;;;;;;11.70;7.82;;;;;;;;;;9977977;29;20088;-58
2021/12/25 20:53:30;;;;;;;4.32;3.92;;;;;;;;;;9989173;29;20086;-59
2021/12/25 20:58:28;;;;;;;7.28;6.57;;;;;;;;;;9987659;29;20079;-58
2021/12/25 21:03:26;;;;;;;6.07;5.07;;;;;;;;;;9993372;29;20068;-59
2021/12/25 21:08:25;;;;;;;8.70;6.55;;;;;;;;;;9988629;29;20513;-57
2021/12/25 21:13:25;;;;;;;8.45;4.47;;;;;;;;;;9982560;29;20548;-57
2021/12/25 21:18:23;;;;;;;8.38;4.80;;;;;;;;;;9980174;29;20345;-57
2021/12/25 21:23:22;;;;;;;6.38;4.80;;;;;;;;;;9986640;29;20554;-57
2021/12/25 21:28:20;;;;;;;7.43;4.50;;;;;;;;;;9981766;29;20094;-58
2021/12/25 21:33:20;;;;;;;5.65;4.20;;;;;;;;;;9985010;29;20079;-58
2021/12/25 21:38:19;;;;;;;7.47;6.10;;;;;;;;;;9975418;29;20068;-58
2021/12/25 21:43:17;;;;;;;4.45;3.90;;;;;;;;;;9988358;29;20083;-58
2021/12/25 21:48:15;;;;;;;5.00;4.22;;;;;;;;;;9986080;29;20494;-57
2021/12/25 21:53:16;;;;;;;8.73;6.70;;;;;;;;;;9978372;29;20068;-58
2021/12/25 21:58:14;;;;;;;11.27;6.45;;;;;;;;;;9987773;29;20532;-59
2021/12/25 22:03:13;;;;;;;14.55;6.60;;;;;;;;;;9991292;29;20536;-58
2021/12/25 22:08:13;;;;;;;6.90;4.50;;;;;;;;;;9985094;29;20094;-58
2021/12/25 22:13:12;;;;;;;8.55;6.20;;;;;;;;;;9993493;29;20550;-58
2021/12/25 22:18:11;;;;;;;7.03;4.55;;;;;;;;;;9989000;29;20449;-58
2021/12/25 22:23:14;;;;;;;7.20;5.20;;;;;;;;;;9985795;29;20067;-59
2021/12/25 22:28:14;;;;;;;5.28;4.20;;;;;;;;;;9991539;29;20090;-58
2021/12/25 22:33:13;;;;;;;6.38;4.38;;;;;;;;;;9986727;29;20079;-59
2021/12/25 22:38:11;;;;;;;12.75;7.60;;;;;;;;;;9987301;29;20078;-59
2021/12/25 22:43:10;;;;;;;11.40;7.95;;;;;;;;;;10014572;29;20446;-59
2021/12/25 22:48:10;;;;;;;8.85;5.57;;;;;;;;;;10016730;29;20067;-59
2021/12/25 22:53:09;;;;;;;7.22;5.20;;;;;;;;;;9992434;29;20080;-59
2021/12/25 22:58:07;;;;;;;10.85;6.10;;;;;;;;;;9990438;29;20075;-58
2021/12/25 23:03:06;;;;;;;9.10;5.65;;;;;;;;;;9995695;29;20556;-58
2021/12/25 23:08:08;;;;;;;16.00;9.32;;;;;;;;;;9986526;29;20520;-58
2021/12/25 23:13:07;;;;;;;6.15;5.43;;;;;;;;;;9989317;29;20071;-58
2021/12/25 23:18:05;;;;;;;4.78;3.42;;;;;;;;;;9995618;29;20497;-52
2021/12/25 23:23:04;;;;;;;221.13;97.20;;;;;;;;;;9995406;29;20482;-59
2021/12/25 23:28:04;;;;;;;7.95;6.13;;;;;;;;;;9998122;29;20095;-59
2021/12/25 23:33:02;;;;;;;6.68;5.22;;;;;;;;;;9993451;29;20083;-59
2021/12/25 23:38:00;;;;;;;7.47;5.57;;;;;;;;;;9993386;29;20078;-58
2021/12/25 23:42:59;;;;;;;6.00;4.85;;;;;;;;;;10004195;29;20446;-59
2021/12/25 23:47:59;;;;;;;8.23;4.72;;;;;;;;;;10009587;29;20489;-58
2021/12/25 23:53:00;;;;;;;8.13;5.35;;;;;;;;;;10005338;29;20060;-58
2021/12/25 23:57:59;;;;;;;6.50;4.28;;;;;;;;;;9996229;29;20080;-58
